createdAt,value
2022-11-25T04:18:33.555Z,4.82
2022-11-25T04:24:03.394Z,4.80
2022-11-25T04:29:31.874Z,4.74
2022-11-25T04:35:07.176Z,4.80
2022-11-25T04:40:37.146Z,4.73
2022-11-25T04:46:19.899Z,4.74
2022-11-25T04:51:53.395Z,4.79
2022-11-25T04:57:24.345Z,4.69
2022-11-25T05:02:53.293Z,4.65
2022-11-25T05:08:24.693Z,4.60
2022-11-25T05:13:54.261Z,4.66
2022-11-25T05:19:23.173Z,4.59
2022-11-25T05:24:54.906Z,4.59
2022-11-25T05:30:24.268Z,4.56
2022-11-25T05:35:57.949Z,4.56
2022-11-25T05:41:32.179Z,4.60
2022-11-25T05:47:00.926Z,4.60
2022-11-25T05:52:29.926Z,4.58
2022-11-25T05:58:06.161Z,4.64
2022-11-25T06:03:36.865Z,4.61
2022-11-25T06:09:06.349Z,4.56
2022-11-25T06:14:36.538Z,4.58
2022-11-25T06:20:09.060Z,4.60
2022-11-25T06:25:38.957Z,4.59
2022-11-25T06:31:13.690Z,4.51
2022-11-25T06:36:51.993Z,4.55
2022-11-25T06:42:21.165Z,4.54
2022-11-25T06:47:51.839Z,4.61
2022-11-25T06:53:24.065Z,4.56
2022-11-25T06:58:53.460Z,4.66
2022-11-25T07:04:23.370Z,4.68
2022-11-25T07:09:52.490Z,4.71
2022-11-25T07:15:21.259Z,4.72
2022-11-25T07:20:51.510Z,4.76
2022-11-25T07:26:22.377Z,4.87
2022-11-25T07:31:51.569Z,4.92
2022-11-25T07:37:21.778Z,4.93
2022-11-25T07:42:51.358Z,4.97
2022-11-25T07:48:20.239Z,5.11
2022-11-25T07:53:52.016Z,5.07
2022-11-25T07:59:22.995Z,5.06
2022-11-25T08:04:52.280Z,5.18
2022-11-25T08:10:22.872Z,5.05
2022-11-25T08:15:52.412Z,5.06
2022-11-25T08:21:21.588Z,5.03
2022-11-25T08:26:53.326Z,5.05
2022-11-25T08:32:22.021Z,5.08
2022-11-25T08:37:51.657Z,5.07
2022-11-25T08:43:26.411Z,5.10
2022-11-25T08:48:58.401Z,5.08
2022-11-25T08:54:27.196Z,5.07
2022-11-25T08:59:57.690Z,5.06
2022-11-25T09:05:26.311Z,5.14
2022-11-25T09:10:55.089Z,5.11
2022-11-25T09:16:26.954Z,5.25
2022-11-25T09:21:56.336Z,5.28
2022-11-25T09:27:25.281Z,5.35
2022-11-25T09:32:56.666Z,5.23
2022-11-25T09:38:25.371Z,5.32
2022-11-25T23:59:42.135Z,4.73
